Search for airport 
image banner adimage banner adimage banner ad
image banner ad

IA49 - Jirak Airport

Located in Fort Atkinson, United States

ICAO - IA49, IATA -

Data provided by Airmate  

General information

Coordinates: N40°43'12" W94°13'20"
Elevation is 1218 feet MSL.
 
View others Airports in Iowa

Operational data

Special qualification required
Current time UTC:
Current local time:
Weather at : KLWD - Lamoni Muni ( 29 km )
METAR: KLWD 292053Z AUTO 33005KT 10SM BKN038 BKN047 34/25 A3000 RMK AO2 SLP147 T03390250 58005
View NOTAMs / SUP AIP / TFR affecting this airport [VIEW]
Communications frequencies: [VIEW]

Runways:

Airport contact information

Address: Fort Atkinson United States

Satellite view of IA49